Time,TemperatureF,DewpointF,PressureIn,WindDirection,WindDirectionDegrees,WindSpeedMPH,WindSpeedGustMPH,Humidity,HourlyPrecipIn,Conditions,Clouds,dailyrainin,SoftwareType,DateUTC
2013-04-09 00:00:00,40.9,40.1,30.06,West,266,0.0,0.0,97,0.00,,---,0.00,VWS V13.01,2013-04-09 04:00:00,
2013-04-09 00:30:00,40.8,40.0,30.05,West,266,0.0,0.0,97,0.00,,---,0.00,VWS V13.01,2013-04-09 04:30:00,
2013-04-09 01:00:00,41.0,40.2,30.06,WSW,253,0.0,0.0,97,0.00,,---,0.00,VWS V13.01,2013-04-09 05:00:00,
2013-04-09 01:30:00,41.3,40.5,30.09,WSW,254,0.0,0.0,97,0.00,,---,0.00,VWS V13.01,2013-04-09 05:30:00,
2013-04-09 02:00:00,41.2,40.7,30.09,SSW,198,0.0,0.0,98,0.00,,---,0.00,VWS V13.01,2013-04-09 06:00:00,
2013-04-09 02:30:00,41.6,41.1,30.09,SSE,162,0.0,0.0,98,0.00,,---,0.00,VWS V13.01,2013-04-09 06:30:00,
2013-04-09 03:00:00,41.5,41.0,30.08,NE,35,0.0,0.0,98,0.00,,---,0.00,VWS V13.01,2013-04-09 07:00:00,
2013-04-09 03:30:00,41.6,41.3,30.07,ENE,60,0.0,0.0,99,0.00,,---,0.00,VWS V13.01,2013-04-09 07:30:00,
2013-04-09 04:00:00,41.5,41.0,30.08,ENE,68,0.0,0.0,98,0.00,,---,0.00,VWS V13.01,2013-04-09 08:00:00,
2013-04-09 04:30:00,41.7,41.4,30.07,SE,124,0.0,0.0,99,0.00,,---,0.00,VWS V13.01,2013-04-09 08:30:00,
2013-04-09 05:00:00,41.7,41.4,30.10,East,96,0.0,0.0,99,0.00,,---,0.00,VWS V13.01,2013-04-09 09:00:00,
2013-04-09 05:30:00,41.6,41.3,30.12,NE,50,0.0,1.0,99,0.00,,---,0.00,VWS V13.01,2013-04-09 09:30:00,
2013-04-09 06:00:00,41.7,41.4,30.08,ENE,58,0.0,0.0,99,0.00,,---,0.00,VWS V13.01,2013-04-09 10:00:00,
2013-04-09 06:30:00,41.7,41.4,30.11,ENE,71,0.0,2.0,99,0.00,,---,0.00,VWS V13.01,2013-04-09 10:30:00,
2013-04-09 07:00:00,41.6,41.3,30.10,ESE,115,0.0,3.0,99,0.00,,---,0.00,VWS V13.01,2013-04-09 11:00:00,
2013-04-09 07:30:00,41.8,41.5,30.10,East,82,0.0,2.0,99,0.00,,---,0.00,VWS V13.01,2013-04-09 11:30:00,
2013-04-09 08:00:00,41.7,41.4,30.09,East,79,0.0,6.0,99,0.00,,---,0.00,VWS V13.01,2013-04-09 12:00:00,
2013-04-09 08:30:00,42.1,41.8,30.08,East,101,0.0,5.0,99,0.00,,---,0.00,VWS V13.01,2013-04-09 12:30:00,
2013-04-09 09:00:00,42.7,42.4,30.09,East,95,0.0,1.0,99,0.00,,---,0.00,VWS V13.01,2013-04-09 13:00:00,
2013-04-09 09:30:00,43.5,43.0,30.07,ESE,109,0.0,5.0,98,0.00,,---,0.00,VWS V13.01,2013-04-09 13:30:00,
2013-04-09 10:00:00,44.1,43.3,30.05,SE,131,0.0,8.0,97,0.00,,---,0.00,VWS V13.01,2013-04-09 14:00:00,
2013-04-09 10:30:00,43.9,42.8,30.07,ENE,65,0.0,7.0,96,0.00,,---,0.00,VWS V13.01,2013-04-09 14:30:00,
2013-04-09 11:00:00,43.6,42.8,30.06,East,87,0.0,1.0,97,0.11,,---,0.11,VWS V13.01,2013-04-09 15:00:00,
2013-04-09 11:30:00,43.5,43.0,30.06,East,83,0.0,2.0,98,0.17,,---,0.17,VWS V13.01,2013-04-09 15:30:00,
2013-04-09 12:00:00,43.3,42.8,30.08,NNE,13,4.0,7.0,98,0.21,,---,0.21,VWS V13.01,2013-04-09 16:00:00,
2013-04-09 12:30:00,43.7,43.2,30.03,NE,49,0.0,11.0,98,0.12,,---,0.23,VWS V13.01,2013-04-09 16:30:00,
2013-04-09 13:00:00,43.6,43.1,30.02,NE,52,0.0,9.0,98,0.09,,---,0.26,VWS V13.01,2013-04-09 17:00:00,
2013-04-09 13:30:00,43.5,43.0,30.00,NE,51,0.0,9.0,98,0.13,,---,0.34,VWS V13.01,2013-04-09 17:30:00,
2013-04-09 14:00:00,44.1,43.8,30.00,NE,40,4.0,10.0,99,0.16,,---,0.39,VWS V13.01,2013-04-09 18:00:00,
2013-04-09 14:30:00,44.6,44.1,29.97,South,186,0.0,13.0,98,0.13,,---,0.39,VWS V13.01,2013-04-09 18:30:00,
2013-04-09 15:00:00,45.0,44.5,29.94,East,93,0.0,11.0,98,0.05,,---,0.39,VWS V13.01,2013-04-09 19:00:00,
2013-04-09 15:30:00,46.5,46.0,29.96,ENE,78,0.0,7.0,98,0.00,,---,0.39,VWS V13.01,2013-04-09 19:30:00,
2013-04-09 16:00:00,47.4,46.6,29.96,SSE,151,0.0,7.0,97,0.00,,---,0.39,VWS V13.01,2013-04-09 20:00:00,
2013-04-09 16:30:00,48.3,47.2,29.91,SSE,159,0.0,8.0,96,0.00,,---,0.39,VWS V13.01,2013-04-09 20:30:00,
2013-04-09 17:00:00,47.2,46.4,29.92,East,99,0.0,24.0,97,0.11,,---,0.50,VWS V13.01,2013-04-09 21:00:00,
2013-04-09 17:30:00,47.1,46.6,29.93,ESE,112,0.0,6.0,98,0.19,,---,0.58,VWS V13.01,2013-04-09 21:30:00,
2013-04-09 18:00:00,47.3,46.8,29.95,NE,39,0.0,0.0,98,0.19,,---,0.58,VWS V13.01,2013-04-09 22:00:00,
2013-04-09 18:30:00,46.8,46.3,29.97,North,8,0.0,0.0,98,0.10,,---,0.60,VWS V13.01,2013-04-09 22:30:00,
2013-04-09 19:00:00,46.8,46.5,29.98,NNE,26,0.0,1.0,99,0.05,,---,0.63,VWS V13.01,2013-04-09 23:00:00,
2013-04-09 19:30:00,46.6,46.3,30.01,North,5,0.0,6.0,99,0.05,,---,0.63,VWS V13.01,2013-04-09 23:30:00,
2013-04-09 20:00:00,45.8,45.3,29.97,NE,40,3.0,9.0,98,0.04,,---,0.64,VWS V13.01,2013-04-10 00:00:00,
2013-04-09 20:30:00,44.7,44.2,30.00,ENE,62,2.0,11.0,98,0.04,,---,0.67,VWS V13.01,2013-04-10 00:30:00,
2013-04-09 21:00:00,43.6,42.8,30.01,ENE,61,3.0,11.0,97,0.07,,---,0.70,VWS V13.01,2013-04-10 01:00:00,
2013-04-09 21:30:00,42.7,41.9,30.04,NE,42,0.0,13.0,97,0.07,,---,0.71,VWS V13.01,2013-04-10 01:30:00,
2013-04-09 22:00:00,42.7,41.9,30.04,NE,34,3.0,13.0,97,0.05,,---,0.72,VWS V13.01,2013-04-10 02:00:00,
2013-04-09 22:30:00,42.6,41.8,30.05,NNE,18,0.0,10.0,97,0.03,,---,0.73,VWS V13.01,2013-04-10 02:30:00,
2013-04-09 23:00:00,42.4,41.6,30.06,NE,49,3.0,10.0,97,0.04,,---,0.75,VWS V13.01,2013-04-10 03:00:00,
2013-04-09 23:30:00,42.0,41.2,30.06,ENE,65,2.0,9.0,97,0.24,,---,0.96,VWS V13.01,2013-04-10 03:30:00,